Hauptseite
METAR-TAF:

METAR-TAF

Flughäfen :

Flughafen Dresden

Dresden, Deutschland

Breite: 51-08N, Länge: 013-45E, Höhe: 230 m

Beobachtung

Neuester Wetterbericht von vor 47 Minuten, um 00:20 UTC
Wind 2 kt aus Nordost
Temperatur -4°C
Luftfeuchtigkeit 80%
Luftdruck 1038 hPa
Sichtweite 10 km oder mehr
keine Wolken unter 1500 m und keine Kumulonimbus oder Gewitterwolken

METAR: EDDC 050020Z AUTO 05002KT CAVOK M04/M07 Q1038

Zeit: 02:07 (01:07 UTC)

Prognose

Neuester Wetterbericht von vor 2 Stunden und 7 Minuten, um 23:00 UTC
Gültige Prognose vom 05 um 00 UTC bis 05 um 24 UTC
Wind 5 kt aus Nord/Nordost
Sichtweite 10 km oder mehr
keine Wolken unter 1500 m und keine Kumulonimbus oder Gewitterwolken
Übergehend zu
vom 05 um 02 UTC bis 05 um 05 UTC
Wind 5 kt aus Süd/Südost

TAF: EDDC 042300Z 0500/0524 03005KT CAVOK BECMG 0502/0505 16005KT

Wetterbeobachtungen und Prognosen von mehr als 4000 Flughäfen (METAR und TAF Bericht).

Die verfügbaren Stationen werden durch gelbe und rote Markierungen auf der Karte dargestellt.

Führen Sie die Maus auf sie, um den Namen der Station zu sehen.

Darauf klicken, um die Beobachtung von Wetterbeobachtungen und Prognosen zu sehen.

Um die Karte zu ändern : klicken Sie auf den grünen Tasten mit einem schwarzen Kreuz Zum Vergrößern, auf den grünen Button mit einem Gedankenstrich zu verkleinern, oder auf die grünen Pfeile für benachbarte Karten.


METAR-TAF: